N1R KSAV-KCLT
Flight info
| Callsign | N1R |
|---|---|
| Flight time | 0h 43m |
| Altitude | 33000 |
| Route | JROSS FLLGG STOCR4 |
| Aircraft | GLF6/M-SBDE2E3FGHIJ4J5M1RWXY/LB1D1 |
Departure
| Time | 2026-05-05 17:53 |
|---|---|
| Airport | Savannah Hilton Head International Airport (KSAV) |
Arrival
| Time | 2026-05-05 18:37 |
|---|---|
| Airport | Charlotte Douglas International Airport (KCLT) |
| Time | Latitude | Longitude | Altitude | Speed | Heading |
|---|---|---|---|---|---|
| 2026-05-05 17:37 | 32.13601 | -81.19643 | 43 ft | 0 kts | 87° |
| 2026-05-05 17:51 | 32.13580 | -81.19621 | 44 ft | 7 kts | 218° |
| 2026-05-05 17:51 | 32.13564 | -81.19685 | 43 ft | 8 kts | 257° |
| 2026-05-05 17:51 | 32.13559 | -81.19763 | 42 ft | 10 kts | 266° |
| 2026-05-05 17:52 | 32.13555 | -81.19853 | 41 ft | 11 kts | 269° |
| 2026-05-05 17:52 | 32.13555 | -81.19958 | 39 ft | 13 kts | 269° |
| 2026-05-05 17:52 | 32.13526 | -81.20013 | 38 ft | 7 kts | 200° |
| 2026-05-05 17:52 | 32.13505 | -81.20013 | 38 ft | 7 kts | 179° |
| 2026-05-05 17:53 | 32.13154 | -81.20010 | 42 ft | 95 kts | 179° |
| 2026-05-05 17:53 | 32.12318 | -81.20003 | 444 ft | 128 kts | 178° |
| 2026-05-05 17:53 | 32.11409 | -81.19958 | 1258 ft | 135 kts | 175° |
| 2026-05-05 17:53 | 32.10439 | -81.19679 | 1912 ft | 161 kts | 154° |
| 2026-05-05 17:54 | 32.09685 | -81.18675 | 2755 ft | 186 kts | 109° |
| 2026-05-05 17:54 | 32.09719 | -81.16915 | 3153 ft | 255 kts | 70° |
| 2026-05-05 17:54 | 32.10965 | -81.15351 | 4487 ft | 278 kts | 28° |
| 2026-05-05 17:54 | 32.12695 | -81.14456 | 6185 ft | 280 kts | 25° |
| 2026-05-05 17:55 | 32.14417 | -81.13351 | 7656 ft | 290 kts | 30° |
| 2026-05-05 17:55 | 32.16146 | -81.12048 | 9177 ft | 299 kts | 33° |
| 2026-05-05 17:55 | 32.17875 | -81.10630 | 10602 ft | 311 kts | 34° |
| 2026-05-05 17:55 | 32.19877 | -81.08916 | 10782 ft | 368 kts | 36° |
| 2026-05-05 17:56 | 32.21984 | -81.07056 | 12349 ft | 372 kts | 36° |
| 2026-05-05 17:56 | 32.24072 | -81.05197 | 13784 ft | 381 kts | 35° |
| 2026-05-05 17:56 | 32.26186 | -81.03305 | 15233 ft | 388 kts | 36° |
| 2026-05-05 17:56 | 32.28433 | -81.01290 | 16750 ft | 394 kts | 35° |
| 2026-05-05 17:57 | 32.30636 | -80.99313 | 18177 ft | 401 kts | 34° |
| 2026-05-05 17:57 | 32.32879 | -80.97295 | 19550 ft | 409 kts | 33° |
| 2026-05-05 17:57 | 32.35297 | -80.95120 | 21023 ft | 417 kts | 32° |
| 2026-05-05 17:57 | 32.37738 | -80.92923 | 22461 ft | 423 kts | 32° |
| 2026-05-05 17:58 | 32.40242 | -80.90667 | 23801 ft | 432 kts | 31° |
| 2026-05-05 17:58 | 32.42687 | -80.88462 | 25255 ft | 436 kts | 31° |
| 2026-05-05 17:58 | 32.45268 | -80.86135 | 26712 ft | 438 kts | 30° |
| 2026-05-05 17:58 | 32.47763 | -80.83885 | 27828 ft | 446 kts | 30° |
| 2026-05-05 17:59 | 32.50336 | -80.81561 | 29016 ft | 451 kts | 29° |
| 2026-05-05 17:59 | 32.52957 | -80.79191 | 30098 ft | 457 kts | 28° |
| 2026-05-05 17:59 | 32.55543 | -80.76853 | 31066 ft | 463 kts | 28° |
| 2026-05-05 17:59 | 32.58098 | -80.74535 | 32272 ft | 461 kts | 27° |
| 2026-05-05 18:00 | 32.60682 | -80.72197 | 33066 ft | 469 kts | 26° |
| 2026-05-05 18:00 | 32.63365 | -80.69778 | 33094 ft | 493 kts | 27° |
| 2026-05-05 18:00 | 32.66195 | -80.67213 | 33096 ft | 514 kts | 27° |
| 2026-05-05 18:01 | 32.72118 | -80.62289 | 33075 ft | 495 kts | 16° |
| 2026-05-05 18:01 | 32.78453 | -80.59129 | 33094 ft | 488 kts | 13° |
| 2026-05-05 18:02 | 32.84772 | -80.56025 | 33096 ft | 487 kts | 13° |
| 2026-05-05 18:02 | 32.91112 | -80.52907 | 33094 ft | 488 kts | 13° |
| 2026-05-05 18:03 | 32.97448 | -80.49786 | 33083 ft | 491 kts | 13° |
| 2026-05-05 18:03 | 33.03816 | -80.46643 | 33087 ft | 487 kts | 13° |
| 2026-05-05 18:04 | 33.10131 | -80.43522 | 33085 ft | 487 kts | 13° |
| 2026-05-05 18:04 | 33.16555 | -80.40343 | 33102 ft | 487 kts | 13° |
| 2026-05-05 18:05 | 33.23019 | -80.37137 | 33108 ft | 487 kts | 13° |
| 2026-05-05 18:05 | 33.26085 | -80.35606 | 33112 ft | 462 kts | 13° |
| 2026-05-05 18:05 | 33.29005 | -80.34154 | 32867 ft | 441 kts | 13° |
| 2026-05-05 18:05 | 33.31802 | -80.32764 | 32435 ft | 426 kts | 13° |
| 2026-05-05 18:06 | 33.34591 | -80.31380 | 31971 ft | 416 kts | 13° |
| 2026-05-05 18:06 | 33.36421 | -80.30473 | 31667 ft | 414 kts | 13° |
| 2026-05-05 18:06 | 33.40020 | -80.28684 | 31083 ft | 414 kts | 13° |
| 2026-05-05 18:06 | 33.42756 | -80.27321 | 30633 ft | 414 kts | 14° |
| 2026-05-05 18:07 | 33.45416 | -80.25995 | 30181 ft | 414 kts | 14° |
| 2026-05-05 18:07 | 33.48131 | -80.24640 | 29720 ft | 414 kts | 14° |
| 2026-05-05 18:07 | 33.50781 | -80.23316 | 29260 ft | 410 kts | 15° |
| 2026-05-05 18:07 | 33.53492 | -80.21960 | 28799 ft | 411 kts | 15° |
| 2026-05-05 18:08 | 33.56205 | -80.20605 | 28329 ft | 408 kts | 15° |
| 2026-05-05 18:08 | 33.58861 | -80.19273 | 27857 ft | 408 kts | 15° |
| 2026-05-05 18:08 | 33.61650 | -80.17879 | 27376 ft | 408 kts | 15° |
| 2026-05-05 18:08 | 33.64365 | -80.16518 | 26906 ft | 407 kts | 16° |
| 2026-05-05 18:09 | 33.67052 | -80.15169 | 26446 ft | 405 kts | 16° |
| 2026-05-05 18:09 | 33.69769 | -80.13807 | 25973 ft | 404 kts | 17° |
| 2026-05-05 18:09 | 33.72512 | -80.12428 | 25494 ft | 404 kts | 17° |
| 2026-05-05 18:09 | 33.75244 | -80.11056 | 25019 ft | 404 kts | 17° |
| 2026-05-05 18:10 | 33.77920 | -80.09711 | 24548 ft | 402 kts | 17° |
| 2026-05-05 18:10 | 33.80520 | -80.08401 | 24088 ft | 400 kts | 18° |
| 2026-05-05 18:10 | 33.83131 | -80.07087 | 23616 ft | 399 kts | 18° |
| 2026-05-05 18:10 | 33.85729 | -80.05779 | 23160 ft | 402 kts | 19° |
| 2026-05-05 18:11 | 33.88290 | -80.04485 | 23064 ft | 396 kts | 19° |
| 2026-05-05 18:11 | 33.91061 | -80.03087 | 23063 ft | 396 kts | 19° |
| 2026-05-05 18:11 | 33.93671 | -80.01770 | 23055 ft | 399 kts | 19° |
| 2026-05-05 18:11 | 33.96358 | -80.00411 | 23060 ft | 401 kts | 19° |
| 2026-05-05 18:12 | 33.99023 | -79.99314 | 23042 ft | 393 kts | 5° |
| 2026-05-05 18:12 | 34.01812 | -79.99486 | 23051 ft | 384 kts | 342° |
| 2026-05-05 18:12 | 34.04471 | -80.00808 | 23068 ft | 380 kts | 332° |
| 2026-05-05 18:12 | 34.06982 | -80.02249 | 23062 ft | 380 kts | 331° |
| 2026-05-05 18:13 | 34.09497 | -80.03715 | 23064 ft | 380 kts | 331° |
| 2026-05-05 18:13 | 34.12019 | -80.05195 | 23068 ft | 378 kts | 331° |
| 2026-05-05 18:13 | 34.14461 | -80.06633 | 23074 ft | 377 kts | 331° |
| 2026-05-05 18:13 | 34.16839 | -80.08035 | 23071 ft | 378 kts | 331° |
| 2026-05-05 18:14 | 34.19271 | -80.09470 | 23070 ft | 378 kts | 331° |
| 2026-05-05 18:14 | 34.21635 | -80.10866 | 23063 ft | 378 kts | 331° |
| 2026-05-05 18:14 | 34.24030 | -80.12282 | 22806 ft | 380 kts | 331° |
| 2026-05-05 18:14 | 34.26470 | -80.13724 | 22486 ft | 376 kts | 331° |
| 2026-05-05 18:15 | 34.28869 | -80.15144 | 22169 ft | 374 kts | 331° |
| 2026-05-05 18:15 | 34.31277 | -80.16570 | 21850 ft | 372 kts | 331° |
| 2026-05-05 18:15 | 34.33733 | -80.18024 | 21519 ft | 371 kts | 330° |
| 2026-05-05 18:15 | 34.36124 | -80.19443 | 21198 ft | 370 kts | 331° |
| 2026-05-05 18:16 | 34.38479 | -80.20840 | 20887 ft | 367 kts | 331° |
| 2026-05-05 18:16 | 34.40814 | -80.22227 | 20570 ft | 367 kts | 331° |
| 2026-05-05 18:16 | 34.43128 | -80.23602 | 20196 ft | 362 kts | 331° |
| 2026-05-05 18:16 | 34.45425 | -80.24966 | 19768 ft | 351 kts | 331° |
| 2026-05-05 18:17 | 34.47645 | -80.26287 | 19347 ft | 347 kts | 330° |
| 2026-05-05 18:17 | 34.49869 | -80.27612 | 18926 ft | 346 kts | 330° |
| 2026-05-05 18:17 | 34.52049 | -80.28910 | 18516 ft | 345 kts | 330° |
| 2026-05-05 18:17 | 34.54212 | -80.30200 | 18111 ft | 345 kts | 331° |
| 2026-05-05 18:18 | 34.56374 | -80.31490 | 17703 ft | 344 kts | 330° |
| 2026-05-05 18:18 | 34.58535 | -80.32779 | 17300 ft | 343 kts | 330° |
| 2026-05-05 18:18 | 34.60652 | -80.34148 | 16886 ft | 339 kts | 323° |
| 2026-05-05 18:18 | 34.62515 | -80.35889 | 16499 ft | 337 kts | 319° |
| 2026-05-05 18:19 | 34.64338 | -80.37650 | 16108 ft | 335 kts | 319° |
| 2026-05-05 18:19 | 34.66174 | -80.39417 | 15825 ft | 334 kts | 319° |
| 2026-05-05 18:19 | 34.68016 | -80.41193 | 15452 ft | 333 kts | 319° |
| 2026-05-05 18:19 | 34.69813 | -80.42923 | 15083 ft | 332 kts | 319° |
| 2026-05-05 18:20 | 34.71641 | -80.44695 | 14706 ft | 331 kts | 318° |
| 2026-05-05 18:20 | 34.73434 | -80.46457 | 14326 ft | 323 kts | 319° |
| 2026-05-05 18:20 | 34.75171 | -80.48163 | 13952 ft | 315 kts | 318° |
| 2026-05-05 18:20 | 34.76855 | -80.49820 | 13578 ft | 308 kts | 317° |
| 2026-05-05 18:21 | 34.78558 | -80.51498 | 13192 ft | 303 kts | 318° |
| 2026-05-05 18:21 | 34.80195 | -80.53109 | 12959 ft | 300 kts | 318° |
| 2026-05-05 18:21 | 34.81854 | -80.54745 | 12951 ft | 301 kts | 317° |
| 2026-05-05 18:21 | 34.83515 | -80.56382 | 12950 ft | 303 kts | 318° |
| 2026-05-05 18:22 | 34.85178 | -80.58042 | 12950 ft | 304 kts | 316° |
| 2026-05-05 18:22 | 34.86799 | -80.59698 | 12839 ft | 305 kts | 316° |
| 2026-05-05 18:22 | 34.88457 | -80.61388 | 12563 ft | 304 kts | 317° |
| 2026-05-05 18:22 | 34.90079 | -80.63044 | 12297 ft | 303 kts | 316° |
| 2026-05-05 18:23 | 34.91716 | -80.64715 | 12021 ft | 302 kts | 316° |
| 2026-05-05 18:23 | 34.93280 | -80.66314 | 11769 ft | 301 kts | 315° |
| 2026-05-05 18:23 | 34.94928 | -80.67998 | 11500 ft | 300 kts | 316° |
| 2026-05-05 18:23 | 34.96553 | -80.69661 | 11232 ft | 299 kts | 315° |
| 2026-05-05 18:24 | 34.98148 | -80.71292 | 10997 ft | 297 kts | 315° |
| 2026-05-05 18:24 | 34.99731 | -80.72914 | 10971 ft | 296 kts | 315° |
| 2026-05-05 18:24 | 35.01347 | -80.74572 | 10965 ft | 297 kts | 315° |
| 2026-05-05 18:24 | 35.02924 | -80.76238 | 10967 ft | 299 kts | 314° |
| 2026-05-05 18:25 | 35.04523 | -80.77940 | 10961 ft | 299 kts | 314° |
| 2026-05-05 18:25 | 35.05567 | -80.79051 | 10963 ft | 299 kts | 314° |
| 2026-05-05 18:25 | 35.07644 | -80.81232 | 10610 ft | 294 kts | 318° |
| 2026-05-05 18:25 | 35.09609 | -80.82178 | 9959 ft | 314 kts | 348° |
| 2026-05-05 18:26 | 35.11791 | -80.82382 | 9266 ft | 320 kts | 353° |
| 2026-05-05 18:26 | 35.13790 | -80.82536 | 8397 ft | 297 kts | 354° |
| 2026-05-05 18:26 | 35.15783 | -80.82697 | 7602 ft | 277 kts | 354° |
| 2026-05-05 18:26 | 35.17663 | -80.82850 | 6808 ft | 264 kts | 353° |
| 2026-05-05 18:27 | 35.19471 | -80.83001 | 6084 ft | 252 kts | 354° |
| 2026-05-05 18:27 | 35.21204 | -80.83146 | 5996 ft | 249 kts | 354° |
| 2026-05-05 18:27 | 35.22941 | -80.83292 | 5968 ft | 246 kts | 354° |
| 2026-05-05 18:27 | 35.24662 | -80.83437 | 5972 ft | 247 kts | 354° |
| 2026-05-05 18:28 | 35.28140 | -80.83730 | 5972 ft | 249 kts | 354° |
| 2026-05-05 18:28 | 35.29846 | -80.83876 | 5970 ft | 242 kts | 354° |
| 2026-05-05 18:28 | 35.31514 | -80.84010 | 5970 ft | 237 kts | 354° |
| 2026-05-05 18:29 | 35.33176 | -80.84147 | 5975 ft | 236 kts | 354° |
| 2026-05-05 18:29 | 35.34872 | -80.84283 | 5975 ft | 238 kts | 354° |
| 2026-05-05 18:29 | 35.36532 | -80.84412 | 5971 ft | 237 kts | 354° |
| 2026-05-05 18:29 | 35.38194 | -80.84540 | 5840 ft | 242 kts | 354° |
| 2026-05-05 18:30 | 35.39905 | -80.84673 | 5306 ft | 250 kts | 354° |
| 2026-05-05 18:30 | 35.41636 | -80.84837 | 4795 ft | 244 kts | 346° |
| 2026-05-05 18:30 | 35.43050 | -80.85780 | 4324 ft | 228 kts | 304° |
| 2026-05-05 18:30 | 35.43589 | -80.87493 | 3870 ft | 211 kts | 268° |
| 2026-05-05 18:31 | 35.43558 | -80.89267 | 3388 ft | 207 kts | 263° |
| 2026-05-05 18:31 | 35.43291 | -80.90955 | 3004 ft | 197 kts | 233° |
| 2026-05-05 18:31 | 35.42228 | -80.91888 | 2997 ft | 192 kts | 200° |
| 2026-05-05 18:31 | 35.41021 | -80.92369 | 3000 ft | 170 kts | 197° |
| 2026-05-05 18:32 | 35.39875 | -80.92780 | 2967 ft | 169 kts | 197° |
| 2026-05-05 18:32 | 35.38717 | -80.93162 | 2962 ft | 169 kts | 195° |
| 2026-05-05 18:32 | 35.37561 | -80.93524 | 2964 ft | 171 kts | 195° |
| 2026-05-05 18:32 | 35.36386 | -80.93876 | 2964 ft | 171 kts | 195° |
| 2026-05-05 18:33 | 35.35212 | -80.94218 | 2960 ft | 174 kts | 194° |
| 2026-05-05 18:33 | 35.34090 | -80.94527 | 2897 ft | 157 kts | 189° |
| 2026-05-05 18:33 | 35.33029 | -80.94504 | 2708 ft | 141 kts | 179° |
| 2026-05-05 18:33 | 35.32144 | -80.94431 | 2528 ft | 117 kts | 180° |
| 2026-05-05 18:34 | 35.31309 | -80.94368 | 2498 ft | 138 kts | 179° |
| 2026-05-05 18:34 | 35.30356 | -80.94247 | 2498 ft | 125 kts | 177° |
| 2026-05-05 18:34 | 35.29358 | -80.94138 | 2343 ft | 151 kts | 178° |
| 2026-05-05 18:34 | 35.28406 | -80.94051 | 2150 ft | 127 kts | 179° |
| 2026-05-05 18:35 | 35.27575 | -80.93993 | 1886 ft | 115 kts | 180° |
| 2026-05-05 18:35 | 35.26802 | -80.93952 | 1696 ft | 110 kts | 181° |
| 2026-05-05 18:35 | 35.26033 | -80.93901 | 1523 ft | 111 kts | 179° |
| 2026-05-05 18:35 | 35.25251 | -80.93835 | 1416 ft | 113 kts | 180° |
| 2026-05-05 18:36 | 35.24456 | -80.93765 | 1255 ft | 116 kts | 180° |
| 2026-05-05 18:36 | 35.23642 | -80.93705 | 1075 ft | 116 kts | 179° |
| 2026-05-05 18:36 | 35.22852 | -80.93641 | 866 ft | 114 kts | 179° |
| 2026-05-05 18:36 | 35.22066 | -80.93578 | 735 ft | 107 kts | 178° |
| 2026-05-05 18:37 | 35.21499 | -80.93533 | 727 ft | 34 kts | 174° |
| 2026-05-05 18:37 | 35.21377 | -80.93440 | 724 ft | 7 kts | 135° |
| 2026-05-05 18:37 | 35.21337 | -80.93394 | 723 ft | 9 kts | 141° |
| 2026-05-05 18:37 | 35.21263 | -80.93378 | 721 ft | 12 kts | 176° |
| 2026-05-05 18:38 | 35.21161 | -80.93370 | 719 ft | 13 kts | 175° |
| 2026-05-05 18:38 | 35.21121 | -80.93325 | 717 ft | 8 kts | 90° |
| 2026-05-05 18:38 | 35.21120 | -80.93245 | 716 ft | 10 kts | 125° |
| 2026-05-05 18:38 | 35.21086 | -80.93266 | 715 ft | 2 kts | 267° |
| 2026-05-05 18:39 | 35.21086 | -80.93271 | 715 ft | 0 kts | 266° |
| 2026-05-05 18:39 | 35.21083 | -80.93283 | 715 ft | 3 kts | 250° |
| 2026-05-05 18:39 | 35.21052 | -80.93276 | 715 ft | 3 kts | 87° |
| 2026-05-05 18:39 | 35.21053 | -80.93269 | 714 ft | 0 kts | 87° |